sensor_id;sensor_type;location;lat;lon;timestamp;P1;durP1;ratioP1;P2;durP2;ratioP2
25231;SDS011;13176;51.140;6.290;2023-07-30T00:00:29;997.90;;;902.45;;
25231;SDS011;13176;51.140;6.290;2023-07-30T00:02:56;971.25;;;881.95;;
25231;SDS011;13176;51.140;6.290;2023-07-30T00:05:22;966.92;;;878.47;;
25231;SDS011;13176;51.140;6.290;2023-07-30T00:07:49;977.65;;;885.90;;
25231;SDS011;13176;51.140;6.290;2023-07-30T00:10:17;970.63;;;883.83;;
25231;SDS011;13176;51.140;6.290;2023-07-30T00:12:45;930.47;;;852.30;;
25231;SDS011;13176;51.140;6.290;2023-07-30T00:15:14;986.03;;;894.65;;
25231;SDS011;13176;51.140;6.290;2023-07-30T00:17:41;954.22;;;872.15;;
25231;SDS011;13176;51.140;6.290;2023-07-30T00:20:07;939.20;;;854.97;;
25231;SDS011;13176;51.140;6.290;2023-07-30T00:22:35;992.85;;;901.15;;
25231;SDS011;13176;51.140;6.290;2023-07-30T00:25:01;1023.33;;;926.00;;
25231;SDS011;13176;51.140;6.290;2023-07-30T00:27:29;974.67;;;886.38;;
25231;SDS011;13176;51.140;6.290;2023-07-30T00:29:57;986.08;;;897.60;;
25231;SDS011;13176;51.140;6.290;2023-07-30T00:32:24;969.10;;;883.72;;
25231;SDS011;13176;51.140;6.290;2023-07-30T00:34:51;912.75;;;834.75;;
25231;SDS011;13176;51.140;6.290;2023-07-30T00:37:25;988.72;;;898.30;;
25231;SDS011;13176;51.140;6.290;2023-07-30T00:39:51;950.58;;;864.42;;
25231;SDS011;13176;51.140;6.290;2023-07-30T00:42:18;982.58;;;886.42;;
25231;SDS011;13176;51.140;6.290;2023-07-30T00:44:44;979.15;;;889.97;;
25231;SDS011;13176;51.140;6.290;2023-07-30T00:47:14;981.05;;;892.15;;
25231;SDS011;13176;51.140;6.290;2023-07-30T00:49:40;981.85;;;891.80;;
25231;SDS011;13176;51.140;6.290;2023-07-30T00:52:12;966.97;;;880.03;;
25231;SDS011;13176;51.140;6.290;2023-07-30T00:54:49;1016.42;;;920.92;;
25231;SDS011;13176;51.140;6.290;2023-07-30T00:57:22;979.65;;;890.95;;
25231;SDS011;13176;51.140;6.290;2023-07-30T00:59:49;1022.13;;;923.72;;
25231;SDS011;13176;51.140;6.290;2023-07-30T01:02:16;1008.72;;;913.38;;
25231;SDS011;13176;51.140;6.290;2023-07-30T01:04:44;1017.67;;;918.85;;
25231;SDS011;13176;51.140;6.290;2023-07-30T01:07:11;968.15;;;881.67;;
25231;SDS011;13176;51.140;6.290;2023-07-30T01:09:40;1056.35;;;948.33;;
25231;SDS011;13176;51.140;6.290;2023-07-30T01:12:08;1034.30;;;930.58;;
25231;SDS011;13176;51.140;6.290;2023-07-30T01:14:37;898.10;;;823.40;;
25231;SDS011;13176;51.140;6.290;2023-07-30T01:17:06;986.72;;;895.97;;
25231;SDS011;13176;51.140;6.290;2023-07-30T01:19:33;945.30;;;863.67;;
25231;SDS011;13176;51.140;6.290;2023-07-30T01:21:59;965.40;;;877.22;;
25231;SDS011;13176;51.140;6.290;2023-07-30T01:24:26;977.83;;;889.58;;
25231;SDS011;13176;51.140;6.290;2023-07-30T01:27:01;930.92;;;850.20;;
25231;SDS011;13176;51.140;6.290;2023-07-30T01:29:37;912.33;;;836.20;;
25231;SDS011;13176;51.140;6.290;2023-07-30T01:32:08;943.33;;;863.45;;
25231;SDS011;13176;51.140;6.290;2023-07-30T01:34:39;901.70;;;826.75;;
25231;SDS011;13176;51.140;6.290;2023-07-30T01:37:09;926.60;;;846.50;;
25231;SDS011;13176;51.140;6.290;2023-07-30T01:39:39;966.22;;;881.38;;
25231;SDS011;13176;51.140;6.290;2023-07-30T01:42:07;890.95;;;819.05;;
25231;SDS011;13176;51.140;6.290;2023-07-30T01:44:34;874.08;;;800.95;;
25231;SDS011;13176;51.140;6.290;2023-07-30T01:47:00;900.33;;;824.67;;
25231;SDS011;13176;51.140;6.290;2023-07-30T01:49:27;860.05;;;790.83;;
25231;SDS011;13176;51.140;6.290;2023-07-30T01:51:58;878.42;;;807.55;;
25231;SDS011;13176;51.140;6.290;2023-07-30T01:54:25;913.35;;;837.67;;
25231;SDS011;13176;51.140;6.290;2023-07-30T01:56:53;911.88;;;832.78;;
25231;SDS011;13176;51.140;6.290;2023-07-30T01:59:20;931.65;;;853.40;;
25231;SDS011;13176;51.140;6.290;2023-07-30T02:01:50;963.05;;;876.05;;
25231;SDS011;13176;51.140;6.290;2023-07-30T02:04:16;963.08;;;877.70;;
25231;SDS011;13176;51.140;6.290;2023-07-30T02:06:44;933.47;;;852.97;;
25231;SDS011;13176;51.140;6.290;2023-07-30T02:09:10;901.95;;;829.53;;
25231;SDS011;13176;51.140;6.290;2023-07-30T02:11:40;877.22;;;805.67;;
25231;SDS011;13176;51.140;6.290;2023-07-30T02:14:10;920.67;;;836.10;;
25231;SDS011;13176;51.140;6.290;2023-07-30T02:16:36;863.92;;;797.55;;
25231;SDS011;13176;51.140;6.290;2023-07-30T02:19:03;796.30;;;736.33;;
25231;SDS011;13176;51.140;6.290;2023-07-30T02:21:30;862.60;;;793.72;;
25231;SDS011;13176;51.140;6.290;2023-07-30T02:23:59;809.78;;;748.53;;
25231;SDS011;13176;51.140;6.290;2023-07-30T02:26:29;893.55;;;823.17;;
25231;SDS011;13176;51.140;6.290;2023-07-30T02:28:58;828.55;;;766.67;;
25231;SDS011;13176;51.140;6.290;2023-07-30T02:31:31;824.45;;;762.20;;
25231;SDS011;13176;51.140;6.290;2023-07-30T02:33:57;808.53;;;748.88;;
25231;SDS011;13176;51.140;6.290;2023-07-30T02:36:26;896.17;;;822.72;;
25231;SDS011;13176;51.140;6.290;2023-07-30T02:38:53;923.83;;;845.53;;
25231;SDS011;13176;51.140;6.290;2023-07-30T02:41:19;894.33;;;819.80;;
25231;SDS011;13176;51.140;6.290;2023-07-30T02:43:46;878.17;;;807.53;;
25231;SDS011;13176;51.140;6.290;2023-07-30T02:46:12;832.25;;;770.08;;
25231;SDS011;13176;51.140;6.290;2023-07-30T02:48:39;827.03;;;764.80;;
25231;SDS011;13176;51.140;6.290;2023-07-30T02:51:06;830.72;;;768.30;;
25231;SDS011;13176;51.140;6.290;2023-07-30T02:53:32;773.00;;;716.72;;
25231;SDS011;13176;51.140;6.290;2023-07-30T02:56:04;796.28;;;736.72;;
25231;SDS011;13176;51.140;6.290;2023-07-30T02:58:33;804.75;;;745.65;;
25231;SDS011;13176;51.140;6.290;2023-07-30T03:01:08;853.40;;;786.65;;
25231;SDS011;13176;51.140;6.290;2023-07-30T03:03:35;863.30;;;794.72;;
25231;SDS011;13176;51.140;6.290;2023-07-30T03:06:02;862.78;;;792.00;;
25231;SDS011;13176;51.140;6.290;2023-07-30T03:08:29;840.85;;;776.03;;
25231;SDS011;13176;51.140;6.290;2023-07-30T03:10:59;867.53;;;797.15;;
25231;SDS011;13176;51.140;6.290;2023-07-30T03:13:26;835.47;;;771.10;;
25231;SDS011;13176;51.140;6.290;2023-07-30T03:15:53;838.58;;;773.22;;
25231;SDS011;13176;51.140;6.290;2023-07-30T03:18:19;845.25;;;779.08;;
25231;SDS011;13176;51.140;6.290;2023-07-30T03:20:46;851.67;;;783.65;;
25231;SDS011;13176;51.140;6.290;2023-07-30T03:23:12;854.35;;;787.45;;
25231;SDS011;13176;51.140;6.290;2023-07-30T03:25:39;827.35;;;763.65;;
25231;SDS011;13176;51.140;6.290;2023-07-30T03:28:05;846.55;;;781.20;;
25231;SDS011;13176;51.140;6.290;2023-07-30T03:30:32;807.00;;;745.97;;
25231;SDS011;13176;51.140;6.290;2023-07-30T03:32:59;848.65;;;781.35;;
25231;SDS011;13176;51.140;6.290;2023-07-30T03:35:25;867.22;;;797.15;;
25231;SDS011;13176;51.140;6.290;2023-07-30T03:37:52;861.28;;;795.75;;
25231;SDS011;13176;51.140;6.290;2023-07-30T03:40:20;856.17;;;787.22;;
25231;SDS011;13176;51.140;6.290;2023-07-30T03:42:47;856.63;;;789.92;;
25231;SDS011;13176;51.140;6.290;2023-07-30T03:45:16;850.33;;;783.80;;
25231;SDS011;13176;51.140;6.290;2023-07-30T03:47:43;860.97;;;793.90;;
25231;SDS011;13176;51.140;6.290;2023-07-30T03:50:10;866.33;;;797.13;;
25231;SDS011;13176;51.140;6.290;2023-07-30T03:52:36;881.38;;;811.60;;
25231;SDS011;13176;51.140;6.290;2023-07-30T03:55:03;867.33;;;799.22;;
25231;SDS011;13176;51.140;6.290;2023-07-30T03:57:34;829.55;;;766.85;;
25231;SDS011;13176;51.140;6.290;2023-07-30T04:00:01;848.13;;;782.58;;
25231;SDS011;13176;51.140;6.290;2023-07-30T04:02:27;842.58;;;778.05;;
25231;SDS011;13176;51.140;6.290;2023-07-30T04:04:54;845.67;;;779.53;;
25231;SDS011;13176;51.140;6.290;2023-07-30T04:07:20;826.15;;;763.13;;
25231;SDS011;13176;51.140;6.290;2023-07-30T04:09:49;829.15;;;765.53;;
25231;SDS011;13176;51.140;6.290;2023-07-30T04:12:18;882.67;;;810.38;;
25231;SDS011;13176;51.140;6.290;2023-07-30T04:14:47;825.03;;;760.13;;
25231;SDS011;13176;51.140;6.290;2023-07-30T04:17:14;848.17;;;780.25;;
25231;SDS011;13176;51.140;6.290;2023-07-30T04:19:42;856.63;;;788.15;;
25231;SDS011;13176;51.140;6.290;2023-07-30T04:22:10;924.13;;;842.67;;
25231;SDS011;13176;51.140;6.290;2023-07-30T04:24:36;940.88;;;860.67;;
25231;SDS011;13176;51.140;6.290;2023-07-30T04:27:03;887.85;;;815.17;;
25231;SDS011;13176;51.140;6.290;2023-07-30T04:29:32;854.83;;;787.42;;
25231;SDS011;13176;51.140;6.290;2023-07-30T04:32:01;841.05;;;776.53;;
25231;SDS011;13176;51.140;6.290;2023-07-30T04:34:28;876.90;;;806.47;;
25231;SDS011;13176;51.140;6.290;2023-07-30T04:36:54;848.63;;;782.65;;
25231;SDS011;13176;51.140;6.290;2023-07-30T04:39:21;862.30;;;794.33;;
25231;SDS011;13176;51.140;6.290;2023-07-30T04:41:50;859.53;;;789.15;;
25231;SDS011;13176;51.140;6.290;2023-07-30T04:44:16;871.75;;;800.75;;
25231;SDS011;13176;51.140;6.290;2023-07-30T04:46:57;839.67;;;773.85;;
25231;SDS011;13176;51.140;6.290;2023-07-30T04:49:23;848.95;;;783.28;;
25231;SDS011;13176;51.140;6.290;2023-07-30T04:51:50;832.08;;;767.55;;
25231;SDS011;13176;51.140;6.290;2023-07-30T04:54:16;836.47;;;771.38;;
25231;SDS011;13176;51.140;6.290;2023-07-30T04:56:43;831.33;;;767.05;;
25231;SDS011;13176;51.140;6.290;2023-07-30T04:59:09;825.75;;;762.67;;
25231;SDS011;13176;51.140;6.290;2023-07-30T05:01:36;849.45;;;783.45;;
25231;SDS011;13176;51.140;6.290;2023-07-30T05:04:03;827.72;;;763.45;;
25231;SDS011;13176;51.140;6.290;2023-07-30T05:06:30;866.08;;;796.60;;
25231;SDS011;13176;51.140;6.290;2023-07-30T05:08:59;832.30;;;767.65;;
25231;SDS011;13176;51.140;6.290;2023-07-30T05:11:25;842.08;;;778.03;;
25231;SDS011;13176;51.140;6.290;2023-07-30T05:13:52;844.13;;;780.50;;
25231;SDS011;13176;51.140;6.290;2023-07-30T05:16:19;839.17;;;772.88;;
25231;SDS011;13176;51.140;6.290;2023-07-30T05:18:46;830.15;;;765.65;;
25231;SDS011;13176;51.140;6.290;2023-07-30T05:21:13;863.05;;;792.13;;
25231;SDS011;13176;51.140;6.290;2023-07-30T05:23:45;851.67;;;783.25;;
25231;SDS011;13176;51.140;6.290;2023-07-30T05:26:11;815.13;;;752.17;;
25231;SDS011;13176;51.140;6.290;2023-07-30T05:28:38;840.03;;;774.28;;
25231;SDS011;13176;51.140;6.290;2023-07-30T05:31:05;847.83;;;781.58;;
25231;SDS011;13176;51.140;6.290;2023-07-30T05:33:34;840.05;;;774.90;;
25231;SDS011;13176;51.140;6.290;2023-07-30T05:36:03;830.72;;;765.60;;
25231;SDS011;13176;51.140;6.290;2023-07-30T05:38:32;857.67;;;790.75;;
25231;SDS011;13176;51.140;6.290;2023-07-30T05:41:01;828.72;;;766.42;;
25231;SDS011;13176;51.140;6.290;2023-07-30T05:43:29;787.53;;;728.67;;
25231;SDS011;13176;51.140;6.290;2023-07-30T05:45:57;825.20;;;762.15;;
25231;SDS011;13176;51.140;6.290;2023-07-30T05:48:24;840.70;;;775.45;;
25231;SDS011;13176;51.140;6.290;2023-07-30T05:50:50;828.85;;;764.42;;
25231;SDS011;13176;51.140;6.290;2023-07-30T05:53:17;807.47;;;746.25;;
25231;SDS011;13176;51.140;6.290;2023-07-30T05:55:46;825.13;;;761.72;;
25231;SDS011;13176;51.140;6.290;2023-07-30T05:58:13;842.60;;;776.38;;
25231;SDS011;13176;51.140;6.290;2023-07-30T06:00:42;875.30;;;807.00;;
25231;SDS011;13176;51.140;6.290;2023-07-30T06:03:12;827.88;;;763.20;;
25231;SDS011;13176;51.140;6.290;2023-07-30T06:05:42;879.35;;;809.63;;
25231;SDS011;13176;51.140;6.290;2023-07-30T06:08:09;902.55;;;829.67;;
25231;SDS011;13176;51.140;6.290;2023-07-30T06:10:37;863.40;;;796.13;;
25231;SDS011;13176;51.140;6.290;2023-07-30T06:13:07;852.53;;;786.40;;
25231;SDS011;13176;51.140;6.290;2023-07-30T06:15:34;851.88;;;786.65;;
25231;SDS011;13176;51.140;6.290;2023-07-30T06:18:01;814.15;;;752.20;;
25231;SDS011;13176;51.140;6.290;2023-07-30T06:20:29;863.42;;;794.90;;
25231;SDS011;13176;51.140;6.290;2023-07-30T06:22:56;827.20;;;764.28;;
25231;SDS011;13176;51.140;6.290;2023-07-30T06:25:25;824.72;;;762.20;;
25231;SDS011;13176;51.140;6.290;2023-07-30T06:27:52;832.50;;;766.45;;
25231;SDS011;13176;51.140;6.290;2023-07-30T06:30:26;841.65;;;775.92;;
25231;SDS011;13176;51.140;6.290;2023-07-30T06:32:53;832.05;;;769.17;;
25231;SDS011;13176;51.140;6.290;2023-07-30T06:35:25;857.88;;;789.03;;
25231;SDS011;13176;51.140;6.290;2023-07-30T06:38:13;815.67;;;754.50;;
25231;SDS011;13176;51.140;6.290;2023-07-30T06:40:43;793.15;;;733.33;;
25231;SDS011;13176;51.140;6.290;2023-07-30T06:43:09;824.17;;;761.78;;
25231;SDS011;13176;51.140;6.290;2023-07-30T06:45:36;802.47;;;740.05;;
25231;SDS011;13176;51.140;6.290;2023-07-30T06:48:03;860.72;;;791.70;;
25231;SDS011;13176;51.140;6.290;2023-07-30T06:50:31;832.35;;;767.67;;
25231;SDS011;13176;51.140;6.290;2023-07-30T06:52:58;827.38;;;764.00;;
25231;SDS011;13176;51.140;6.290;2023-07-30T06:55:25;841.72;;;776.95;;
25231;SDS011;13176;51.140;6.290;2023-07-30T06:57:51;867.17;;;800.03;;
25231;SDS011;13176;51.140;6.290;2023-07-30T07:00:18;823.65;;;760.50;;
25231;SDS011;13176;51.140;6.290;2023-07-30T07:02:48;882.28;;;809.25;;
25231;SDS011;13176;51.140;6.290;2023-07-30T07:05:15;829.33;;;764.08;;
25231;SDS011;13176;51.140;6.290;2023-07-30T07:07:44;861.80;;;792.03;;
25231;SDS011;13176;51.140;6.290;2023-07-30T07:10:11;904.63;;;830.25;;
25231;SDS011;13176;51.140;6.290;2023-07-30T07:12:38;875.38;;;804.58;;
25231;SDS011;13176;51.140;6.290;2023-07-30T07:15:18;914.80;;;835.88;;
25231;SDS011;13176;51.140;6.290;2023-07-30T07:17:45;971.70;;;880.17;;
25231;SDS011;13176;51.140;6.290;2023-07-30T07:20:11;884.58;;;812.03;;
25231;SDS011;13176;51.140;6.290;2023-07-30T07:22:39;905.40;;;831.50;;
25231;SDS011;13176;51.140;6.290;2023-07-30T07:25:06;937.40;;;857.58;;
25231;SDS011;13176;51.140;6.290;2023-07-30T07:27:32;876.30;;;804.67;;
25231;SDS011;13176;51.140;6.290;2023-07-30T07:29:59;902.95;;;828.70;;
25231;SDS011;13176;51.140;6.290;2023-07-30T07:32:26;871.38;;;802.13;;
25231;SDS011;13176;51.140;6.290;2023-07-30T07:34:53;902.28;;;828.28;;
25231;SDS011;13176;51.140;6.290;2023-07-30T07:37:20;834.85;;;769.40;;
25231;SDS011;13176;51.140;6.290;2023-07-30T07:39:47;841.22;;;776.08;;
25231;SDS011;13176;51.140;6.290;2023-07-30T07:42:13;860.58;;;792.42;;
25231;SDS011;13176;51.140;6.290;2023-07-30T07:44:40;872.13;;;802.17;;
25231;SDS011;13176;51.140;6.290;2023-07-30T07:47:07;857.80;;;789.30;;
25231;SDS011;13176;51.140;6.290;2023-07-30T07:49:33;885.95;;;813.75;;
25231;SDS011;13176;51.140;6.290;2023-07-30T07:52:00;853.83;;;786.88;;
25231;SDS011;13176;51.140;6.290;2023-07-30T07:54:26;883.42;;;813.35;;
25231;SDS011;13176;51.140;6.290;2023-07-30T07:56:53;938.22;;;856.42;;
25231;SDS011;13176;51.140;6.290;2023-07-30T07:59:19;905.40;;;831.10;;
25231;SDS011;13176;51.140;6.290;2023-07-30T08:01:46;882.92;;;809.15;;
25231;SDS011;13176;51.140;6.290;2023-07-30T08:04:12;986.42;;;893.20;;
25231;SDS011;13176;51.140;6.290;2023-07-30T08:06:39;900.85;;;827.58;;
25231;SDS011;13176;51.140;6.290;2023-07-30T08:09:05;936.83;;;854.38;;
25231;SDS011;13176;51.140;6.290;2023-07-30T08:11:33;884.08;;;813.90;;
25231;SDS011;13176;51.140;6.290;2023-07-30T08:13:59;881.72;;;812.38;;
25231;SDS011;13176;51.140;6.290;2023-07-30T08:16:26;885.30;;;813.05;;
25231;SDS011;13176;51.140;6.290;2023-07-30T08:18:52;889.85;;;817.38;;
25231;SDS011;13176;51.140;6.290;2023-07-30T08:21:19;883.47;;;811.97;;
25231;SDS011;13176;51.140;6.290;2023-07-30T08:23:46;911.58;;;835.22;;
25231;SDS011;13176;51.140;6.290;2023-07-30T08:26:13;934.83;;;856.65;;
25231;SDS011;13176;51.140;6.290;2023-07-30T08:28:39;944.47;;;861.75;;
25231;SDS011;13176;51.140;6.290;2023-07-30T08:31:06;903.08;;;826.35;;
25231;SDS011;13176;51.140;6.290;2023-07-30T08:33:32;895.08;;;822.88;;
25231;SDS011;13176;51.140;6.290;2023-07-30T08:35:59;921.83;;;842.80;;
25231;SDS011;13176;51.140;6.290;2023-07-30T08:38:26;893.28;;;819.08;;
25231;SDS011;13176;51.140;6.290;2023-07-30T08:40:52;877.67;;;806.45;;
25231;SDS011;13176;51.140;6.290;2023-07-30T08:43:19;864.75;;;796.03;;
25231;SDS011;13176;51.140;6.290;2023-07-30T08:45:45;840.00;;;775.75;;
25231;SDS011;13176;51.140;6.290;2023-07-30T08:48:12;840.25;;;774.42;;
25231;SDS011;13176;51.140;6.290;2023-07-30T08:50:40;831.92;;;768.10;;
25231;SDS011;13176;51.140;6.290;2023-07-30T08:53:07;837.95;;;772.38;;
25231;SDS011;13176;51.140;6.290;2023-07-30T08:55:34;823.28;;;760.20;;
25231;SDS011;13176;51.140;6.290;2023-07-30T08:58:02;801.45;;;741.50;;
25231;SDS011;13176;51.140;6.290;2023-07-30T09:00:31;828.65;;;764.78;;
25231;SDS011;13176;51.140;6.290;2023-07-30T09:03:00;823.97;;;762.72;;
25231;SDS011;13176;51.140;6.290;2023-07-30T09:05:29;785.20;;;727.08;;
25231;SDS011;13176;51.140;6.290;2023-07-30T09:07:57;764.30;;;708.13;;
25231;SDS011;13176;51.140;6.290;2023-07-30T09:10:25;722.50;;;670.55;;
25231;SDS011;13176;51.140;6.290;2023-07-30T09:12:53;646.15;;;601.83;;
25231;SDS011;13176;51.140;6.290;2023-07-30T09:15:28;748.05;;;691.50;;
25231;SDS011;13176;51.140;6.290;2023-07-30T09:18:00;690.40;;;640.88;;
25231;SDS011;13176;51.140;6.290;2023-07-30T09:20:27;730.03;;;675.25;;
25231;SDS011;13176;51.140;6.290;2023-07-30T09:22:57;742.75;;;687.58;;
25231;SDS011;13176;51.140;6.290;2023-07-30T09:25:24;600.35;;;560.72;;
25231;SDS011;13176;51.140;6.290;2023-07-30T09:27:51;533.58;;;500.08;;
25231;SDS011;13176;51.140;6.290;2023-07-30T09:30:22;596.67;;;556.00;;
25231;SDS011;13176;51.140;6.290;2023-07-30T09:32:54;547.33;;;512.75;;
25231;SDS011;13176;51.140;6.290;2023-07-30T09:35:22;571.67;;;533.75;;
25231;SDS011;13176;51.140;6.290;2023-07-30T09:38:00;548.22;;;514.25;;
25231;SDS011;13176;51.140;6.290;2023-07-30T09:40:34;493.15;;;461.23;;
25231;SDS011;13176;51.140;6.290;2023-07-30T09:43:02;211.30;;;198.98;;
25231;SDS011;13176;51.140;6.290;2023-07-30T09:45:32;490.25;;;459.83;;
25231;SDS011;13176;51.140;6.290;2023-07-30T09:48:02;340.02;;;318.88;;
25231;SDS011;13176;51.140;6.290;2023-07-30T09:50:33;320.45;;;301.05;;
25231;SDS011;13176;51.140;6.290;2023-07-30T09:53:02;320.33;;;300.25;;
25231;SDS011;13176;51.140;6.290;2023-07-30T09:55:29;238.70;;;224.57;;
25231;SDS011;13176;51.140;6.290;2023-07-30T09:57:56;524.17;;;490.58;;
25231;SDS011;13176;51.140;6.290;2023-07-30T10:00:23;132.13;;;124.03;;
25231;SDS011;13176;51.140;6.290;2023-07-30T10:02:50;189.52;;;178.75;;
25231;SDS011;13176;51.140;6.290;2023-07-30T10:05:21;349.35;;;328.08;;
25231;SDS011;13176;51.140;6.290;2023-07-30T10:07:59;348.35;;;327.30;;
25231;SDS011;13176;51.140;6.290;2023-07-30T10:10:33;116.78;;;109.68;;
25231;SDS011;13176;51.140;6.290;2023-07-30T10:13:02;106.55;;;100.22;;
25231;SDS011;13176;51.140;6.290;2023-07-30T10:15:35;111.07;;;104.60;;
25231;SDS011;13176;51.140;6.290;2023-07-30T10:18:03;57.67;;;54.17;;
25231;SDS011;13176;51.140;6.290;2023-07-30T10:20:31;161.70;;;152.55;;
25231;SDS011;13176;51.140;6.290;2023-07-30T10:22:58;68.30;;;64.28;;
25231;SDS011;13176;51.140;6.290;2023-07-30T10:25:48;62.80;;;58.85;;
25231;SDS011;13176;51.140;6.290;2023-07-30T10:30:58;67.65;;;63.58;;
25231;SDS011;13176;51.140;6.290;2023-07-30T10:33:46;55.10;;;51.90;;
25231;SDS011;13176;51.140;6.290;2023-07-30T10:36:35;82.28;;;77.63;;
25231;SDS011;13176;51.140;6.290;2023-07-30T10:39:11;57.75;;;54.22;;
25231;SDS011;13176;51.140;6.290;2023-07-30T10:41:42;53.88;;;50.60;;
25231;SDS011;13176;51.140;6.290;2023-07-30T10:46:47;546.55;;;511.30;;
25231;SDS011;13176;51.140;6.290;2023-07-30T10:49:14;538.67;;;503.83;;
25231;SDS011;13176;51.140;6.290;2023-07-30T10:51:40;596.45;;;557.50;;
25231;SDS011;13176;51.140;6.290;2023-07-30T10:54:07;577.35;;;538.95;;
25231;SDS011;13176;51.140;6.290;2023-07-30T10:56:35;591.42;;;552.55;;
25231;SDS011;13176;51.140;6.290;2023-07-30T10:59:04;615.13;;;574.05;;
25231;SDS011;13176;51.140;6.290;2023-07-30T11:01:40;487.10;;;458.88;;
25231;SDS011;13176;51.140;6.290;2023-07-30T11:04:18;748.95;;;691.33;;
25231;SDS011;13176;51.140;6.290;2023-07-30T11:06:46;605.90;;;565.38;;
25231;SDS011;13176;51.140;6.290;2023-07-30T11:09:22;520.42;;;483.70;;
25231;SDS011;13176;51.140;6.290;2023-07-30T11:11:53;772.40;;;709.88;;
25231;SDS011;13176;51.140;6.290;2023-07-30T11:14:22;484.27;;;454.63;;
25231;SDS011;13176;51.140;6.290;2023-07-30T11:19:26;617.15;;;575.50;;
25231;SDS011;13176;51.140;6.290;2023-07-30T11:21:54;766.22;;;708.83;;
25231;SDS011;13176;51.140;6.290;2023-07-30T11:24:32;463.08;;;433.58;;
25231;SDS011;13176;51.140;6.290;2023-07-30T11:27:00;325.88;;;306.33;;
25231;SDS011;13176;51.140;6.290;2023-07-30T11:29:27;521.65;;;488.67;;
25231;SDS011;13176;51.140;6.290;2023-07-30T11:31:57;676.72;;;625.90;;
25231;SDS011;13176;51.140;6.290;2023-07-30T11:34:26;202.63;;;190.73;;
25231;SDS011;13176;51.140;6.290;2023-07-30T11:36:53;68.47;;;64.45;;
25231;SDS011;13176;51.140;6.290;2023-07-30T11:39:22;304.83;;;287.77;;
25231;SDS011;13176;51.140;6.290;2023-07-30T11:41:50;271.13;;;255.55;;
25231;SDS011;13176;51.140;6.290;2023-07-30T11:44:36;152.60;;;144.02;;
25231;SDS011;13176;51.140;6.290;2023-07-30T11:47:05;450.10;;;421.92;;
25231;SDS011;13176;51.140;6.290;2023-07-30T11:49:32;647.38;;;599.72;;
25231;SDS011;13176;51.140;6.290;2023-07-30T11:52:08;796.15;;;731.53;;
25231;SDS011;13176;51.140;6.290;2023-07-30T11:54:36;443.17;;;415.83;;
25231;SDS011;13176;51.140;6.290;2023-07-30T11:57:02;229.00;;;216.48;;
25231;SDS011;13176;51.140;6.290;2023-07-30T11:59:32;451.48;;;423.25;;
25231;SDS011;13176;51.140;6.290;2023-07-30T12:02:03;592.45;;;550.50;;
25231;SDS011;13176;51.140;6.290;2023-07-30T12:04:30;743.90;;;687.20;;
25231;SDS011;13176;51.140;6.290;2023-07-30T12:07:24;766.40;;;708.40;;
25231;SDS011;13176;51.140;6.290;2023-07-30T12:09:51;1012.65;;;913.38;;
25231;SDS011;13176;51.140;6.290;2023-07-30T12:12:18;839.90;;;774.17;;
25231;SDS011;13176;51.140;6.290;2023-07-30T12:17:20;726.20;;;672.28;;
25231;SDS011;13176;51.140;6.290;2023-07-30T12:19:47;1060.32;;;951.95;;
25231;SDS011;13176;51.140;6.290;2023-07-30T12:25:14;1253.80;;;969.70;;
25231;SDS011;13176;51.140;6.290;2023-07-30T12:27:40;1093.10;;;980.35;;
25231;SDS011;13176;51.140;6.290;2023-07-30T12:30:07;1273.57;;;999.90;;
25231;SDS011;13176;51.140;6.290;2023-07-30T12:32:34;1105.82;;;991.22;;
25231;SDS011;13176;51.140;6.290;2023-07-30T12:35:07;1584.00;;;999.90;;
25231;SDS011;13176;51.140;6.290;2023-07-30T12:37:51;1484.00;;;999.90;;
25231;SDS011;13176;51.140;6.290;2023-07-30T12:40:28;1697.47;;;999.90;;
25231;SDS011;13176;51.140;6.290;2023-07-30T12:43:21;1272.20;;;999.75;;
25231;SDS011;13176;51.140;6.290;2023-07-30T12:45:49;1284.50;;;999.90;;
25231;SDS011;13176;51.140;6.290;2023-07-30T12:48:17;1020.88;;;922.58;;
25231;SDS011;13176;51.140;6.290;2023-07-30T12:50:44;770.85;;;709.22;;
25231;SDS011;13176;51.140;6.290;2023-07-30T12:53:11;1056.63;;;947.55;;
25231;SDS011;13176;51.140;6.290;2023-07-30T12:55:38;868.53;;;796.50;;
25231;SDS011;13176;51.140;6.290;2023-07-30T12:58:06;746.72;;;691.55;;
25231;SDS011;13176;51.140;6.290;2023-07-30T13:00:33;400.05;;;374.98;;
25231;SDS011;13176;51.140;6.290;2023-07-30T13:03:00;402.50;;;378.60;;
25231;SDS011;13176;51.140;6.290;2023-07-30T13:05:28;273.50;;;257.60;;
25231;SDS011;13176;51.140;6.290;2023-07-30T13:07:55;250.27;;;235.90;;
25231;SDS011;13176;51.140;6.290;2023-07-30T13:10:24;150.25;;;141.70;;
25231;SDS011;13176;51.140;6.290;2023-07-30T13:12:59;207.07;;;195.73;;
25231;SDS011;13176;51.140;6.290;2023-07-30T13:15:25;428.90;;;402.10;;
25231;SDS011;13176;51.140;6.290;2023-07-30T13:17:53;397.05;;;370.05;;
25231;SDS011;13176;51.140;6.290;2023-07-30T13:20:20;302.20;;;283.77;;
25231;SDS011;13176;51.140;6.290;2023-07-30T13:22:47;248.90;;;234.43;;
25231;SDS011;13176;51.140;6.290;2023-07-30T13:25:13;495.58;;;464.95;;
25231;SDS011;13176;51.140;6.290;2023-07-30T13:27:39;660.13;;;614.00;;
25231;SDS011;13176;51.140;6.290;2023-07-30T13:30:08;507.95;;;475.73;;
25231;SDS011;13176;51.140;6.290;2023-07-30T13:32:34;495.90;;;462.45;;
25231;SDS011;13176;51.140;6.290;2023-07-30T13:35:01;468.20;;;438.80;;
25231;SDS011;13176;51.140;6.290;2023-07-30T13:37:27;334.02;;;315.00;;
25231;SDS011;13176;51.140;6.290;2023-07-30T13:39:54;75.10;;;70.80;;
25231;SDS011;13176;51.140;6.290;2023-07-30T13:42:20;58.70;;;55.17;;
25231;SDS011;13176;51.140;6.290;2023-07-30T13:44:47;262.30;;;247.13;;
25231;SDS011;13176;51.140;6.290;2023-07-30T13:47:13;360.48;;;339.08;;
25231;SDS011;13176;51.140;6.290;2023-07-30T13:49:40;600.25;;;562.45;;
25231;SDS011;13176;51.140;6.290;2023-07-30T13:52:07;163.80;;;154.60;;
25231;SDS011;13176;51.140;6.290;2023-07-30T13:54:33;394.88;;;371.98;;
25231;SDS011;13176;51.140;6.290;2023-07-30T13:57:03;219.15;;;206.52;;
25231;SDS011;13176;51.140;6.290;2023-07-30T13:59:31;430.80;;;404.30;;
25231;SDS011;13176;51.140;6.290;2023-07-30T14:01:57;74.03;;;69.65;;
25231;SDS011;13176;51.140;6.290;2023-07-30T14:04:24;87.85;;;82.82;;
25231;SDS011;13176;51.140;6.290;2023-07-30T14:06:50;43.58;;;40.88;;
25231;SDS011;13176;51.140;6.290;2023-07-30T14:09:17;51.88;;;48.88;;
25231;SDS011;13176;51.140;6.290;2023-07-30T14:11:43;41.67;;;39.33;;
25231;SDS011;13176;51.140;6.290;2023-07-30T14:14:12;34.33;;;32.10;;
25231;SDS011;13176;51.140;6.290;2023-07-30T14:16:39;29.10;;;27.00;;